sensor_id;sensor_type;location;lat;lon;timestamp;P1;durP1;ratioP1;P2;durP2;ratioP2
73168;SDS011;61379;59.732;30.468;2023-06-22T00:01:22;9.35;;;8.55;;
73168;SDS011;61379;59.732;30.468;2023-06-22T00:03:48;9.15;;;8.35;;
73168;SDS011;61379;59.732;30.468;2023-06-22T00:06:17;9.05;;;8.25;;
73168;SDS011;61379;59.732;30.468;2023-06-22T00:08:43;9.20;;;8.27;;
73168;SDS011;61379;59.732;30.468;2023-06-22T00:11:10;9.10;;;8.18;;
73168;SDS011;61379;59.732;30.468;2023-06-22T00:13:37;9.38;;;8.15;;
73168;SDS011;61379;59.732;30.468;2023-06-22T00:16:04;9.60;;;8.70;;
73168;SDS011;61379;59.732;30.468;2023-06-22T00:18:31;8.93;;;8.07;;
73168;SDS011;61379;59.732;30.468;2023-06-22T00:20:57;9.32;;;8.55;;
73168;SDS011;61379;59.732;30.468;2023-06-22T00:23:26;9.55;;;8.30;;
73168;SDS011;61379;59.732;30.468;2023-06-22T00:25:52;9.50;;;8.35;;
73168;SDS011;61379;59.732;30.468;2023-06-22T00:28:19;9.40;;;8.35;;
73168;SDS011;61379;59.732;30.468;2023-06-22T00:30:46;10.32;;;8.88;;
73168;SDS011;61379;59.732;30.468;2023-06-22T00:33:13;9.30;;;8.40;;
73168;SDS011;61379;59.732;30.468;2023-06-22T00:35:41;10.60;;;9.35;;
73168;SDS011;61379;59.732;30.468;2023-06-22T00:38:08;9.70;;;8.80;;
73168;SDS011;61379;59.732;30.468;2023-06-22T00:40:36;11.02;;;9.93;;
73168;SDS011;61379;59.732;30.468;2023-06-22T00:43:03;11.82;;;10.02;;
73168;SDS011;61379;59.732;30.468;2023-06-22T00:45:31;11.25;;;10.25;;
73168;SDS011;61379;59.732;30.468;2023-06-22T00:47:58;13.73;;;11.63;;
73168;SDS011;61379;59.732;30.468;2023-06-22T00:50:26;17.63;;;14.55;;
73168;SDS011;61379;59.732;30.468;2023-06-22T00:52:53;17.90;;;15.18;;
73168;SDS011;61379;59.732;30.468;2023-06-22T00:55:21;20.98;;;17.15;;
73168;SDS011;61379;59.732;30.468;2023-06-22T00:57:50;23.08;;;16.70;;
73168;SDS011;61379;59.732;30.468;2023-06-22T01:00:20;20.50;;;15.30;;
73168;SDS011;61379;59.732;30.468;2023-06-22T01:02:49;16.33;;;14.45;;
73168;SDS011;61379;59.732;30.468;2023-06-22T01:05:17;14.63;;;12.55;;
73168;SDS011;61379;59.732;30.468;2023-06-22T01:07:46;12.82;;;11.02;;
73168;SDS011;61379;59.732;30.468;2023-06-22T01:10:20;13.52;;;11.68;;
73168;SDS011;61379;59.732;30.468;2023-06-22T01:12:51;13.98;;;11.50;;
73168;SDS011;61379;59.732;30.468;2023-06-22T01:15:20;13.55;;;10.88;;
73168;SDS011;61379;59.732;30.468;2023-06-22T01:17:48;13.02;;;10.82;;
73168;SDS011;61379;59.732;30.468;2023-06-22T01:20:16;14.20;;;10.85;;
73168;SDS011;61379;59.732;30.468;2023-06-22T01:22:46;14.00;;;12.00;;
73168;SDS011;61379;59.732;30.468;2023-06-22T01:25:19;14.30;;;12.20;;
73168;SDS011;61379;59.732;30.468;2023-06-22T01:27:48;16.52;;;11.88;;
73168;SDS011;61379;59.732;30.468;2023-06-22T01:30:19;14.10;;;12.23;;
73168;SDS011;61379;59.732;30.468;2023-06-22T01:32:46;13.80;;;11.68;;
73168;SDS011;61379;59.732;30.468;2023-06-22T01:35:14;14.77;;;10.93;;
73168;SDS011;61379;59.732;30.468;2023-06-22T01:37:41;11.75;;;10.38;;
73168;SDS011;61379;59.732;30.468;2023-06-22T01:40:08;14.93;;;11.68;;
73168;SDS011;61379;59.732;30.468;2023-06-22T01:42:35;12.13;;;10.93;;
73168;SDS011;61379;59.732;30.468;2023-06-22T01:45:03;11.68;;;10.45;;
73168;SDS011;61379;59.732;30.468;2023-06-22T01:47:34;12.88;;;10.45;;
73168;SDS011;61379;59.732;30.468;2023-06-22T01:50:00;11.00;;;9.90;;
73168;SDS011;61379;59.732;30.468;2023-06-22T01:52:30;11.13;;;9.50;;
73168;SDS011;61379;59.732;30.468;2023-06-22T01:54:59;13.30;;;10.32;;
73168;SDS011;61379;59.732;30.468;2023-06-22T01:57:26;11.02;;;9.50;;
73168;SDS011;61379;59.732;30.468;2023-06-22T01:59:55;10.35;;;9.38;;
73168;SDS011;61379;59.732;30.468;2023-06-22T02:02:24;11.15;;;10.02;;
73168;SDS011;61379;59.732;30.468;2023-06-22T02:04:57;10.63;;;9.40;;
73168;SDS011;61379;59.732;30.468;2023-06-22T02:07:25;11.55;;;9.88;;
73168;SDS011;61379;59.732;30.468;2023-06-22T02:09:54;14.02;;;9.55;;
73168;SDS011;61379;59.732;30.468;2023-06-22T02:12:23;10.93;;;9.85;;
73168;SDS011;61379;59.732;30.468;2023-06-22T02:14:53;10.57;;;8.40;;
73168;SDS011;61379;59.732;30.468;2023-06-22T02:17:20;9.50;;;8.63;;
73168;SDS011;61379;59.732;30.468;2023-06-22T02:19:47;10.32;;;9.32;;
73168;SDS011;61379;59.732;30.468;2023-06-22T02:22:15;10.55;;;9.55;;
73168;SDS011;61379;59.732;30.468;2023-06-22T02:24:42;10.55;;;9.52;;
73168;SDS011;61379;59.732;30.468;2023-06-22T02:27:09;10.27;;;9.27;;
73168;SDS011;61379;59.732;30.468;2023-06-22T02:29:36;10.02;;;9.13;;
73168;SDS011;61379;59.732;30.468;2023-06-22T02:32:03;10.40;;;9.50;;
73168;SDS011;61379;59.732;30.468;2023-06-22T02:34:31;10.15;;;9.30;;
73168;SDS011;61379;59.732;30.468;2023-06-22T02:36:59;11.07;;;10.07;;
73168;SDS011;61379;59.732;30.468;2023-06-22T02:39:29;10.50;;;9.45;;
73168;SDS011;61379;59.732;30.468;2023-06-22T02:41:56;11.35;;;9.90;;
73168;SDS011;61379;59.732;30.468;2023-06-22T02:44:22;10.50;;;9.50;;
73168;SDS011;61379;59.732;30.468;2023-06-22T02:46:49;11.77;;;10.68;;
73168;SDS011;61379;59.732;30.468;2023-06-22T02:49:16;11.75;;;9.85;;
73168;SDS011;61379;59.732;30.468;2023-06-22T02:51:44;11.52;;;10.38;;
73168;SDS011;61379;59.732;30.468;2023-06-22T02:54:11;10.73;;;9.75;;
73168;SDS011;61379;59.732;30.468;2023-06-22T02:56:39;11.07;;;9.82;;
73168;SDS011;61379;59.732;30.468;2023-06-22T02:59:09;12.77;;;10.18;;
73168;SDS011;61379;59.732;30.468;2023-06-22T03:01:36;12.18;;;10.27;;
73168;SDS011;61379;59.732;30.468;2023-06-22T03:04:05;11.48;;;10.48;;
73168;SDS011;61379;59.732;30.468;2023-06-22T03:06:32;11.80;;;10.75;;
73168;SDS011;61379;59.732;30.468;2023-06-22T03:08:59;12.57;;;10.70;;
73168;SDS011;61379;59.732;30.468;2023-06-22T03:11:26;12.15;;;10.95;;
73168;SDS011;61379;59.732;30.468;2023-06-22T03:13:54;12.02;;;10.85;;
73168;SDS011;61379;59.732;30.468;2023-06-22T03:16:21;13.05;;;11.75;;
73168;SDS011;61379;59.732;30.468;2023-06-22T03:18:47;13.80;;;12.15;;
73168;SDS011;61379;59.732;30.468;2023-06-22T03:21:14;14.00;;;11.88;;
73168;SDS011;61379;59.732;30.468;2023-06-22T03:23:42;14.35;;;12.88;;
73168;SDS011;61379;59.732;30.468;2023-06-22T03:26:09;14.35;;;12.85;;
73168;SDS011;61379;59.732;30.468;2023-06-22T03:28:36;13.40;;;11.93;;
73168;SDS011;61379;59.732;30.468;2023-06-22T03:31:04;15.70;;;12.40;;
73168;SDS011;61379;59.732;30.468;2023-06-22T03:33:31;14.13;;;11.85;;
73168;SDS011;61379;59.732;30.468;2023-06-22T03:35:58;13.55;;;12.25;;
73168;SDS011;61379;59.732;30.468;2023-06-22T03:38:25;17.00;;;11.75;;
73168;SDS011;61379;59.732;30.468;2023-06-22T03:40:52;13.13;;;10.25;;
73168;SDS011;61379;59.732;30.468;2023-06-22T03:43:18;11.60;;;10.40;;
73168;SDS011;61379;59.732;30.468;2023-06-22T03:45:45;11.57;;;10.48;;
73168;SDS011;61379;59.732;30.468;2023-06-22T03:48:13;11.70;;;10.50;;
73168;SDS011;61379;59.732;30.468;2023-06-22T03:50:40;10.80;;;9.80;;
73168;SDS011;61379;59.732;30.468;2023-06-22T03:53:07;11.40;;;10.30;;
73168;SDS011;61379;59.732;30.468;2023-06-22T03:55:33;11.93;;;10.73;;
73168;SDS011;61379;59.732;30.468;2023-06-22T03:58:00;11.70;;;10.50;;
73168;SDS011;61379;59.732;30.468;2023-06-22T04:00:31;11.27;;;10.13;;
73168;SDS011;61379;59.732;30.468;2023-06-22T04:02:58;10.80;;;9.65;;
73168;SDS011;61379;59.732;30.468;2023-06-22T04:05:26;11.93;;;10.82;;
73168;SDS011;61379;59.732;30.468;2023-06-22T04:07:53;11.57;;;10.57;;
73168;SDS011;61379;59.732;30.468;2023-06-22T04:10:20;12.13;;;10.82;;
73168;SDS011;61379;59.732;30.468;2023-06-22T04:12:46;12.63;;;11.43;;
73168;SDS011;61379;59.732;30.468;2023-06-22T04:15:13;13.55;;;11.45;;
73168;SDS011;61379;59.732;30.468;2023-06-22T04:17:40;12.20;;;11.00;;
73168;SDS011;61379;59.732;30.468;2023-06-22T04:20:07;14.70;;;12.35;;
73168;SDS011;61379;59.732;30.468;2023-06-22T04:22:35;12.38;;;11.20;;
73168;SDS011;61379;59.732;30.468;2023-06-22T04:25:02;13.20;;;10.98;;
73168;SDS011;61379;59.732;30.468;2023-06-22T04:27:30;12.57;;;10.73;;
73168;SDS011;61379;59.732;30.468;2023-06-22T04:29:56;11.68;;;10.40;;
73168;SDS011;61379;59.732;30.468;2023-06-22T04:32:25;14.07;;;11.50;;
73168;SDS011;61379;59.732;30.468;2023-06-22T04:34:52;15.02;;;11.57;;
73168;SDS011;61379;59.732;30.468;2023-06-22T04:37:19;15.45;;;10.93;;
73168;SDS011;61379;59.732;30.468;2023-06-22T04:39:50;13.07;;;10.82;;
73168;SDS011;61379;59.732;30.468;2023-06-22T04:42:17;13.55;;;11.63;;
73168;SDS011;61379;59.732;30.468;2023-06-22T04:44:44;12.73;;;11.43;;
73168;SDS011;61379;59.732;30.468;2023-06-22T04:47:10;12.85;;;11.50;;
73168;SDS011;61379;59.732;30.468;2023-06-22T04:49:37;12.65;;;11.52;;
73168;SDS011;61379;59.732;30.468;2023-06-22T04:52:06;10.95;;;9.98;;
73168;SDS011;61379;59.732;30.468;2023-06-22T04:54:33;12.50;;;11.20;;
73168;SDS011;61379;59.732;30.468;2023-06-22T04:57:02;13.15;;;12.05;;
73168;SDS011;61379;59.732;30.468;2023-06-22T05:01:56;14.02;;;12.27;;
73168;SDS011;61379;59.732;30.468;2023-06-22T05:04:23;15.02;;;11.82;;
73168;SDS011;61379;59.732;30.468;2023-06-22T05:06:50;16.25;;;11.68;;
73168;SDS011;61379;59.732;30.468;2023-06-22T05:09:17;14.02;;;11.77;;
73168;SDS011;61379;59.732;30.468;2023-06-22T05:11:44;13.75;;;11.70;;
73168;SDS011;61379;59.732;30.468;2023-06-22T05:14:12;15.05;;;11.80;;
73168;SDS011;61379;59.732;30.468;2023-06-22T05:16:40;13.77;;;12.48;;
73168;SDS011;61379;59.732;30.468;2023-06-22T05:19:07;13.98;;;11.88;;
73168;SDS011;61379;59.732;30.468;2023-06-22T05:21:34;13.57;;;12.20;;
73168;SDS011;61379;59.732;30.468;2023-06-22T05:24:00;16.08;;;13.30;;
73168;SDS011;61379;59.732;30.468;2023-06-22T05:26:28;13.23;;;11.90;;
73168;SDS011;61379;59.732;30.468;2023-06-22T05:28:55;14.23;;;12.27;;
73168;SDS011;61379;59.732;30.468;2023-06-22T05:31:24;14.02;;;12.63;;
73168;SDS011;61379;59.732;30.468;2023-06-22T05:33:51;14.55;;;12.40;;
73168;SDS011;61379;59.732;30.468;2023-06-22T05:36:18;13.32;;;12.13;;
73168;SDS011;61379;59.732;30.468;2023-06-22T05:38:45;14.05;;;12.32;;
73168;SDS011;61379;59.732;30.468;2023-06-22T05:41:12;12.32;;;11.23;;
73168;SDS011;61379;59.732;30.468;2023-06-22T05:43:39;11.95;;;10.75;;
73168;SDS011;61379;59.732;30.468;2023-06-22T05:46:06;12.50;;;11.30;;
73168;SDS011;61379;59.732;30.468;2023-06-22T05:48:34;13.48;;;12.23;;
73168;SDS011;61379;59.732;30.468;2023-06-22T05:51:01;12.85;;;11.75;;
73168;SDS011;61379;59.732;30.468;2023-06-22T05:53:27;13.45;;;11.75;;
73168;SDS011;61379;59.732;30.468;2023-06-22T05:55:54;12.85;;;11.35;;
73168;SDS011;61379;59.732;30.468;2023-06-22T05:58:21;12.65;;;11.43;;
73168;SDS011;61379;59.732;30.468;2023-06-22T06:00:48;15.30;;;12.00;;
73168;SDS011;61379;59.732;30.468;2023-06-22T06:03:14;13.60;;;12.18;;
73168;SDS011;61379;59.732;30.468;2023-06-22T06:05:44;12.68;;;11.38;;
73168;SDS011;61379;59.732;30.468;2023-06-22T06:08:11;13.05;;;11.75;;
73168;SDS011;61379;59.732;30.468;2023-06-22T06:10:37;12.65;;;11.35;;
73168;SDS011;61379;59.732;30.468;2023-06-22T06:13:04;13.55;;;11.48;;
73168;SDS011;61379;59.732;30.468;2023-06-22T06:15:31;12.10;;;10.95;;
73168;SDS011;61379;59.732;30.468;2023-06-22T06:17:58;11.90;;;10.80;;
73168;SDS011;61379;59.732;30.468;2023-06-22T06:20:25;13.43;;;12.23;;
73168;SDS011;61379;59.732;30.468;2023-06-22T06:22:54;13.52;;;12.02;;
73168;SDS011;61379;59.732;30.468;2023-06-22T06:25:21;12.90;;;11.57;;
73168;SDS011;61379;59.732;30.468;2023-06-22T06:27:49;13.05;;;11.65;;
73168;SDS011;61379;59.732;30.468;2023-06-22T06:30:16;14.85;;;13.15;;
73168;SDS011;61379;59.732;30.468;2023-06-22T06:32:43;13.68;;;12.45;;
73168;SDS011;61379;59.732;30.468;2023-06-22T06:35:11;13.00;;;11.98;;
73168;SDS011;61379;59.732;30.468;2023-06-22T06:37:38;12.70;;;11.60;;
73168;SDS011;61379;59.732;30.468;2023-06-22T06:40:07;12.93;;;11.43;;
73168;SDS011;61379;59.732;30.468;2023-06-22T06:42:36;12.35;;;11.15;;
73168;SDS011;61379;59.732;30.468;2023-06-22T06:45:06;12.98;;;11.68;;
73168;SDS011;61379;59.732;30.468;2023-06-22T06:47:33;12.73;;;11.60;;
73168;SDS011;61379;59.732;30.468;2023-06-22T06:49:59;12.25;;;10.88;;
73168;SDS011;61379;59.732;30.468;2023-06-22T06:52:27;23.85;;;11.38;;
73168;SDS011;61379;59.732;30.468;2023-06-22T06:54:54;12.13;;;10.65;;
73168;SDS011;61379;59.732;30.468;2023-06-22T06:57:22;12.02;;;10.85;;
73168;SDS011;61379;59.732;30.468;2023-06-22T06:59:49;11.32;;;10.32;;
73168;SDS011;61379;59.732;30.468;2023-06-22T07:02:15;11.32;;;10.20;;
73168;SDS011;61379;59.732;30.468;2023-06-22T07:04:42;11.50;;;10.38;;
73168;SDS011;61379;59.732;30.468;2023-06-22T07:07:09;11.20;;;10.20;;
73168;SDS011;61379;59.732;30.468;2023-06-22T07:09:36;11.07;;;10.07;;
73168;SDS011;61379;59.732;30.468;2023-06-22T07:12:03;10.30;;;9.30;;
73168;SDS011;61379;59.732;30.468;2023-06-22T07:14:31;11.35;;;10.10;;
73168;SDS011;61379;59.732;30.468;2023-06-22T07:16:58;12.18;;;10.88;;
73168;SDS011;61379;59.732;30.468;2023-06-22T07:19:25;11.30;;;10.30;;
73168;SDS011;61379;59.732;30.468;2023-06-22T07:21:52;11.25;;;10.15;;
73168;SDS011;61379;59.732;30.468;2023-06-22T07:24:19;11.52;;;10.52;;
73168;SDS011;61379;59.732;30.468;2023-06-22T07:26:46;11.68;;;9.57;;
73168;SDS011;61379;59.732;30.468;2023-06-22T07:29:15;12.05;;;10.82;;
73168;SDS011;61379;59.732;30.468;2023-06-22T07:31:43;12.70;;;11.18;;
73168;SDS011;61379;59.732;30.468;2023-06-22T07:34:10;12.05;;;10.98;;
73168;SDS011;61379;59.732;30.468;2023-06-22T07:36:36;12.55;;;11.27;;
73168;SDS011;61379;59.732;30.468;2023-06-22T07:39:03;12.05;;;10.93;;
73168;SDS011;61379;59.732;30.468;2023-06-22T07:41:30;12.88;;;10.27;;
73168;SDS011;61379;59.732;30.468;2023-06-22T07:43:57;11.52;;;10.57;;
73168;SDS011;61379;59.732;30.468;2023-06-22T07:46:24;11.93;;;10.68;;
73168;SDS011;61379;59.732;30.468;2023-06-22T07:48:52;12.35;;;11.35;;
73168;SDS011;61379;59.732;30.468;2023-06-22T07:51:19;10.73;;;9.85;;
73168;SDS011;61379;59.732;30.468;2023-06-22T07:53:46;10.48;;;9.45;;
73168;SDS011;61379;59.732;30.468;2023-06-22T07:56:12;12.20;;;11.00;;
73168;SDS011;61379;59.732;30.468;2023-06-22T07:58:44;11.13;;;10.13;;
73168;SDS011;61379;59.732;30.468;2023-06-22T08:01:11;11.77;;;10.57;;
73168;SDS011;61379;59.732;30.468;2023-06-22T08:03:37;11.77;;;10.77;;
73168;SDS011;61379;59.732;30.468;2023-06-22T08:06:06;12.20;;;11.13;;
73168;SDS011;61379;59.732;30.468;2023-06-22T08:08:34;11.55;;;10.38;;
73168;SDS011;61379;59.732;30.468;2023-06-22T08:11:01;12.10;;;10.88;;
73168;SDS011;61379;59.732;30.468;2023-06-22T08:13:28;12.02;;;10.75;;
73168;SDS011;61379;59.732;30.468;2023-06-22T08:15:55;11.75;;;10.57;;
73168;SDS011;61379;59.732;30.468;2023-06-22T08:18:21;11.10;;;10.15;;
73168;SDS011;61379;59.732;30.468;2023-06-22T08:20:48;10.93;;;9.82;;
73168;SDS011;61379;59.732;30.468;2023-06-22T08:23:16;12.10;;;10.80;;
73168;SDS011;61379;59.732;30.468;2023-06-22T08:25:43;13.18;;;11.88;;
73168;SDS011;61379;59.732;30.468;2023-06-22T08:28:10;13.38;;;12.25;;
73168;SDS011;61379;59.732;30.468;2023-06-22T08:30:38;12.57;;;11.40;;
73168;SDS011;61379;59.732;30.468;2023-06-22T08:33:05;12.48;;;11.38;;
73168;SDS011;61379;59.732;30.468;2023-06-22T08:35:31;13.32;;;12.15;;
73168;SDS011;61379;59.732;30.468;2023-06-22T08:37:58;12.18;;;11.05;;
73168;SDS011;61379;59.732;30.468;2023-06-22T08:40:26;13.27;;;12.07;;
73168;SDS011;61379;59.732;30.468;2023-06-22T08:42:54;13.27;;;12.02;;
73168;SDS011;61379;59.732;30.468;2023-06-22T08:45:21;12.73;;;11.55;;
73168;SDS011;61379;59.732;30.468;2023-06-22T08:47:48;12.35;;;11.32;;
73168;SDS011;61379;59.732;30.468;2023-06-22T08:50:14;12.82;;;11.65;;
73168;SDS011;61379;59.732;30.468;2023-06-22T08:52:41;13.57;;;11.35;;
73168;SDS011;61379;59.732;30.468;2023-06-22T08:55:09;12.18;;;11.00;;
73168;SDS011;61379;59.732;30.468;2023-06-22T08:57:37;12.30;;;11.27;;
73168;SDS011;61379;59.732;30.468;2023-06-22T09:00:05;13.50;;;12.30;;
73168;SDS011;61379;59.732;30.468;2023-06-22T09:02:40;12.32;;;11.10;;
73168;SDS011;61379;59.732;30.468;2023-06-22T09:05:07;13.20;;;12.02;;
73168;SDS011;61379;59.732;30.468;2023-06-22T09:07:34;12.68;;;11.70;;
73168;SDS011;61379;59.732;30.468;2023-06-22T09:10:00;12.45;;;11.43;;
73168;SDS011;61379;59.732;30.468;2023-06-22T09:12:31;13.10;;;11.90;;
73168;SDS011;61379;59.732;30.468;2023-06-22T09:14:59;11.73;;;10.73;;
73168;SDS011;61379;59.732;30.468;2023-06-22T09:17:30;13.38;;;11.60;;
73168;SDS011;61379;59.732;30.468;2023-06-22T09:19:56;12.50;;;11.15;;
73168;SDS011;61379;59.732;30.468;2023-06-22T09:22:23;13.18;;;12.18;;
73168;SDS011;61379;59.732;30.468;2023-06-22T09:24:54;13.63;;;12.43;;
73168;SDS011;61379;59.732;30.468;2023-06-22T09:27:21;13.52;;;12.23;;
73168;SDS011;61379;59.732;30.468;2023-06-22T09:29:47;13.40;;;12.18;;
73168;SDS011;61379;59.732;30.468;2023-06-22T09:32:15;13.43;;;12.20;;
73168;SDS011;61379;59.732;30.468;2023-06-22T09:34:42;14.10;;;12.65;;
73168;SDS011;61379;59.732;30.468;2023-06-22T09:37:09;13.07;;;12.02;;
73168;SDS011;61379;59.732;30.468;2023-06-22T09:39:36;13.90;;;12.45;;
73168;SDS011;61379;59.732;30.468;2023-06-22T09:42:03;12.70;;;11.50;;
73168;SDS011;61379;59.732;30.468;2023-06-22T09:44:30;12.73;;;11.55;;
73168;SDS011;61379;59.732;30.468;2023-06-22T09:46:57;13.50;;;12.43;;
73168;SDS011;61379;59.732;30.468;2023-06-22T09:49:25;12.73;;;11.50;;
73168;SDS011;61379;59.732;30.468;2023-06-22T09:51:52;13.48;;;12.27;;
73168;SDS011;61379;59.732;30.468;2023-06-22T09:54:19;12.55;;;11.45;;
73168;SDS011;61379;59.732;30.468;2023-06-22T09:56:45;12.93;;;11.60;;
73168;SDS011;61379;59.732;30.468;2023-06-22T09:59:12;12.70;;;11.63;;
73168;SDS011;61379;59.732;30.468;2023-06-22T10:01:39;13.43;;;11.98;;
73168;SDS011;61379;59.732;30.468;2023-06-22T10:04:05;13.10;;;12.00;;
73168;SDS011;61379;59.732;30.468;2023-06-22T10:06:34;12.85;;;11.85;;
73168;SDS011;61379;59.732;30.468;2023-06-22T10:09:00;13.27;;;12.07;;
73168;SDS011;61379;59.732;30.468;2023-06-22T10:11:27;13.38;;;12.20;;
73168;SDS011;61379;59.732;30.468;2023-06-22T10:13:56;13.45;;;12.27;;
73168;SDS011;61379;59.732;30.468;2023-06-22T10:16:23;14.10;;;12.85;;
73168;SDS011;61379;59.732;30.468;2023-06-22T10:18:52;13.45;;;12.30;;
73168;SDS011;61379;59.732;30.468;2023-06-22T10:21:18;16.50;;;15.10;;
73168;SDS011;61379;59.732;30.468;2023-06-22T10:23:46;13.65;;;12.35;;
73168;SDS011;61379;59.732;30.468;2023-06-22T10:26:13;13.07;;;11.98;;
73168;SDS011;61379;59.732;30.468;2023-06-22T10:28:40;13.30;;;12.27;;
73168;SDS011;61379;59.732;30.468;2023-06-22T10:31:07;13.85;;;12.65;;
73168;SDS011;61379;59.732;30.468;2023-06-22T10:33:33;13.55;;;11.65;;
73168;SDS011;61379;59.732;30.468;2023-06-22T10:36:00;13.65;;;12.50;;
73168;SDS011;61379;59.732;30.468;2023-06-22T10:38:27;14.82;;;13.57;;
73168;SDS011;61379;59.732;30.468;2023-06-22T10:40:55;13.18;;;12.13;;
73168;SDS011;61379;59.732;30.468;2023-06-22T10:43:22;13.95;;;12.65;;
73168;SDS011;61379;59.732;30.468;2023-06-22T10:45:49;15.43;;;13.98;;
73168;SDS011;61379;59.732;30.468;2023-06-22T10:48:15;14.57;;;13.38;;
73168;SDS011;61379;59.732;30.468;2023-06-22T10:50:42;14.18;;;12.77;;
73168;SDS011;61379;59.732;30.468;2023-06-22T10:53:09;15.18;;;13.68;;
73168;SDS011;61379;59.732;30.468;2023-06-22T10:55:35;14.43;;;13.23;;
73168;SDS011;61379;59.732;30.468;2023-06-22T10:58:03;14.60;;;13.40;;
73168;SDS011;61379;59.732;30.468;2023-06-22T11:00:30;14.07;;;12.95;;
73168;SDS011;61379;59.732;30.468;2023-06-22T11:02:57;13.70;;;12.60;;
73168;SDS011;61379;59.732;30.468;2023-06-22T11:05:24;13.75;;;12.65;;
73168;SDS011;61379;59.732;30.468;2023-06-22T11:07:50;13.10;;;11.82;;
73168;SDS011;61379;59.732;30.468;2023-06-22T11:10:17;13.45;;;11.63;;
73168;SDS011;61379;59.732;30.468;2023-06-22T11:12:45;14.13;;;12.90;;
73168;SDS011;61379;59.732;30.468;2023-06-22T11:15:13;13.98;;;12.82;;
73168;SDS011;61379;59.732;30.468;2023-06-22T11:17:40;13.27;;;11.98;;
73168;SDS011;61379;59.732;30.468;2023-06-22T11:20:07;14.00;;;12.57;;
73168;SDS011;61379;59.732;30.468;2023-06-22T11:22:36;13.18;;;11.95;;
73168;SDS011;61379;59.732;30.468;2023-06-22T11:25:03;13.02;;;11.82;;
73168;SDS011;61379;59.732;30.468;2023-06-22T11:27:30;12.48;;;11.35;;
73168;SDS011;61379;59.732;30.468;2023-06-22T11:29:57;14.48;;;13.05;;
73168;SDS011;61379;59.732;30.468;2023-06-22T11:32:25;14.00;;;11.93;;
73168;SDS011;61379;59.732;30.468;2023-06-22T11:34:52;14.00;;;12.80;;
73168;SDS011;61379;59.732;30.468;2023-06-22T11:37:18;14.60;;;13.13;;
73168;SDS011;61379;59.732;30.468;2023-06-22T11:39:46;14.52;;;13.32;;
73168;SDS011;61379;59.732;30.468;2023-06-22T11:42:13;13.90;;;12.70;;
73168;SDS011;61379;59.732;30.468;2023-06-22T11:44:41;13.20;;;12.20;;
73168;SDS011;61379;59.732;30.468;2023-06-22T11:47:08;18.90;;;13.48;;
73168;SDS011;61379;59.732;30.468;2023-06-22T11:49:36;14.27;;;12.38;;
73168;SDS011;61379;59.732;30.468;2023-06-22T11:52:03;13.80;;;12.68;;
73168;SDS011;61379;59.732;30.468;2023-06-22T11:54:30;14.32;;;13.05;;
73168;SDS011;61379;59.732;30.468;2023-06-22T11:56:57;13.85;;;12.63;;
73168;SDS011;61379;59.732;30.468;2023-06-22T11:59:23;14.25;;;12.82;;
73168;SDS011;61379;59.732;30.468;2023-06-22T12:01:50;14.25;;;12.95;;
73168;SDS011;61379;59.732;30.468;2023-06-22T12:04:17;13.93;;;12.70;;
73168;SDS011;61379;59.732;30.468;2023-06-22T12:06:45;13.90;;;12.70;;
73168;SDS011;61379;59.732;30.468;2023-06-22T12:09:12;14.00;;;12.50;;
73168;SDS011;61379;59.732;30.468;2023-06-22T12:11:39;12.80;;;11.70;;
73168;SDS011;61379;59.732;30.468;2023-06-22T12:14:06;14.65;;;9.35;;
73168;SDS011;61379;59.732;30.468;2023-06-22T12:16:32;21.02;;;11.75;;
73168;SDS011;61379;59.732;30.468;2023-06-22T12:18:59;11.80;;;10.70;;
73168;SDS011;61379;59.732;30.468;2023-06-22T12:21:26;12.35;;;9.90;;
73168;SDS011;61379;59.732;30.468;2023-06-22T12:23:55;10.48;;;9.57;;
73168;SDS011;61379;59.732;30.468;2023-06-22T12:26:22;12.25;;;11.13;;
73168;SDS011;61379;59.732;30.468;2023-06-22T12:28:49;12.10;;;11.10;;
73168;SDS011;61379;59.732;30.468;2023-06-22T12:31:15;15.25;;;14.00;;
73168;SDS011;61379;59.732;30.468;2023-06-22T12:33:42;15.35;;;13.90;;
73168;SDS011;61379;59.732;30.468;2023-06-22T12:36:09;15.50;;;13.45;;
73168;SDS011;61379;59.732;30.468;2023-06-22T12:38:35;16.23;;;13.18;;
73168;SDS011;61379;59.732;30.468;2023-06-22T12:41:03;14.20;;;12.90;;
73168;SDS011;61379;59.732;30.468;2023-06-22T12:43:30;14.70;;;13.13;;
73168;SDS011;61379;59.732;30.468;2023-06-22T12:45:57;14.02;;;12.70;;
73168;SDS011;61379;59.732;30.468;2023-06-22T12:48:25;13.45;;;12.10;;
73168;SDS011;61379;59.732;30.468;2023-06-22T12:50:52;12.77;;;11.48;;
73168;SDS011;61379;59.732;30.468;2023-06-22T12:53:19;12.65;;;11.35;;
73168;SDS011;61379;59.732;30.468;2023-06-22T12:55:48;12.15;;;10.95;;
73168;SDS011;61379;59.732;30.468;2023-06-22T12:58:16;13.88;;;12.57;;
73168;SDS011;61379;59.732;30.468;2023-06-22T13:00:43;12.00;;;11.00;;
73168;SDS011;61379;59.732;30.468;2023-06-22T13:03:09;13.23;;;11.88;;
73168;SDS011;61379;59.732;30.468;2023-06-22T13:05:36;13.50;;;12.30;;
73168;SDS011;61379;59.732;30.468;2023-06-22T13:08:03;14.25;;;12.85;;
73168;SDS011;61379;59.732;30.468;2023-06-22T13:10:30;12.77;;;11.68;;
73168;SDS011;61379;59.732;30.468;2023-06-22T13:12:57;15.18;;;13.57;;
73168;SDS011;61379;59.732;30.468;2023-06-22T13:15:27;13.65;;;12.48;;
73168;SDS011;61379;59.732;30.468;2023-06-22T13:17:55;14.90;;;13.20;;
73168;SDS011;61379;59.732;30.468;2023-06-22T13:20:21;14.73;;;13.48;;
73168;SDS011;61379;59.732;30.468;2023-06-22T13:22:48;14.45;;;13.20;;
73168;SDS011;61379;59.732;30.468;2023-06-22T13:25:16;15.00;;;13.50;;
73168;SDS011;61379;59.732;30.468;2023-06-22T13:27:45;13.80;;;12.50;;
73168;SDS011;61379;59.732;30.468;2023-06-22T13:30:12;22.55;;;18.17;;
73168;SDS011;61379;59.732;30.468;2023-06-22T13:32:40;14.55;;;13.13;;
73168;SDS011;61379;59.732;30.468;2023-06-22T13:35:08;15.80;;;13.43;;
73168;SDS011;61379;59.732;30.468;2023-06-22T13:37:35;15.98;;;14.38;;
73168;SDS011;61379;59.732;30.468;2023-06-22T13:40:02;14.43;;;12.75;;
73168;SDS011;61379;59.732;30.468;2023-06-22T13:44:58;13.40;;;12.10;;
73168;SDS011;61379;59.732;30.468;2023-06-22T13:47:24;14.20;;;12.68;;
73168;SDS011;61379;59.732;30.468;2023-06-22T13:49:52;13.75;;;12.35;;
73168;SDS011;61379;59.732;30.468;2023-06-22T13:52:19;17.55;;;13.82;;
73168;SDS011;61379;59.732;30.468;2023-06-22T13:54:46;15.07;;;13.50;;
73168;SDS011;61379;59.732;30.468;2023-06-22T13:57:13;19.67;;;14.75;;
73168;SDS011;61379;59.732;30.468;2023-06-22T13:59:39;18.98;;;14.98;;
73168;SDS011;61379;59.732;30.468;2023-06-22T14:02:06;15.88;;;14.25;;
73168;SDS011;61379;59.732;30.468;2023-06-22T14:04:33;18.25;;;15.32;;
73168;SDS011;61379;59.732;30.468;2023-06-22T14:07:01;16.38;;;14.63;;
73168;SDS011;61379;59.732;30.468;2023-06-22T14:09:28;20.52;;;15.57;;
73168;SDS011;61379;59.732;30.468;2023-06-22T14:11:55;16.27;;;14.68;;
73168;SDS011;61379;59.732;30.468;2023-06-22T14:14:22;15.77;;;14.18;;
73168;SDS011;61379;59.732;30.468;2023-06-22T14:16:48;21.67;;;18.20;;